• Join FlightAware (Why Join?)
  • Login
  • US Flag 
04:03AM EDT


 

Airport Tracker/Info


-or-


 

Live Flight TrackerFlight Track Log ✈ SWA3924 ✈ 24-Apr-2013 ✈ KBNA - KLAX

Flight Track Log - Related Links

Times and Time Zones

All times are in EDT time to prevent confusion due to time zone crossing. See the SWA3924 flight status page for this flight to view local times or setup timezone preferences in your user account.

Time Position Orientation Groundspeed Altitude Reporting Facility
EDT Latitude Longitude Course Direction KTS MPH feet Rate Location/Type
03:47PM 36.1660 -86.8474 287° West  Level FlightAware Approximate
03:47PM 36.2167 -86.7833 287° West 258 297 5,200  Level Nashville TRACON
03:48PM 36.2222 -86.8736 274° West 248 285 8,100 3,180 Climbing Memphis Center
03:49PM 36.2325 -86.9478 280° West 268 308 10,900 2,400 Climbing Memphis Center
03:50PM 36.2481 -87.0553 280° West 294 338 12,900 2,700 Climbing Memphis Center
03:51PM 36.2633 -87.1678 280° West 332 382 16,300 2,700 Climbing Memphis Center
03:52PM 36.2786 -87.2703 281° West 338 389 18,400 2,160 Climbing Memphis Center
03:53PM 36.2958 -87.3856 281° West 344 396 20,700 2,220 Climbing Memphis Center
03:54PM 36.3156 -87.5058 282° West 352 405 22,900 1,740 Climbing Memphis Center
03:55PM 36.3100 -87.6347 267° West 357 411 24,200 1,500 Climbing Memphis Center
03:56PM 36.3022 -87.7561 265° West 362 417 26,000 1,680 Climbing Memphis Center
03:57PM 36.2986 -87.8875 268° West 374 430 27,600 1,800 Climbing Memphis Center
03:58PM 36.2908 -88.0292 266° West 379 436 29,700 1,800 Climbing Memphis Center
03:59PM 36.2844 -88.1247 265° West 374 430 31,200 1,740 Climbing Memphis Center
04:00PM 36.2783 -88.2614 267° West 363 418 33,200 1,680 Climbing Memphis Center
04:01PM 36.2719 -88.3800 266° West 363 418 34,600 1,380 Climbing Memphis Center
04:02PM 36.2656 -88.5036 266° West 363 418 36,000 660 Climbing Memphis Center
04:03PM 36.2589 -88.6222 266° West 363 418 36,000  Level Memphis Center
04:04PM 36.2522 -88.7381 266° West 358 412 36,000  Level Memphis Center
04:06PM 36.2333 -88.8807 270° West  Level FlightAware Approximate
04:06PM 36.2364 -88.9778 270° West 353 406 36,000  Level Memphis Center
04:07PM 36.2272 -89.0936 264° West 348 400 36,000  Level Memphis Center
04:08PM 36.2200 -89.2147 266° West 348 400 36,000  Level Memphis Center
04:09PM 36.2106 -89.3358 265° West 353 406 36,000  Level Memphis Center
04:10PM 36.2053 -89.4567 267° West 353 406 36,000  Level Memphis Center
04:11PM 36.2000 -89.5778 267° West 353 406 36,000  Level Memphis Center
04:12PM 36.1922 -89.7064 266° West 348 400 36,000  Level Memphis Center
04:13PM 36.1844 -89.8247 265° West 348 400 36,000  Level Memphis Center
04:14PM 36.1786 -89.9431 267° West 348 400 36,000  Level Memphis Center
04:15PM 36.1708 -90.0639 265° West 348 400 36,000  Level Memphis Center
04:16PM 36.1606 -90.1872 264° West 353 406 36,000  Level Memphis Center
04:17PM 36.1544 -90.3056 266° West 353 406 36,000  Level Memphis Center
04:18PM 36.1461 -90.4264 265° West 353 406 36,000  Level Memphis Center
04:19PM 36.1397 -90.5472 266° West 353 406 36,000  Level Memphis Center
04:20PM 36.1333 -90.6628 266° West 348 400 36,000  Level Memphis Center
04:21PM 36.1267 -90.7836 266° West 348 400 36,000  Level Memphis Center
04:22PM 36.1219 -90.9017 267° West 348 400 36,000  Level Memphis Center
04:23PM 36.1172 -91.0225 267° West 348 400 36,000  Level Memphis Center
04:24PM 36.1103 -91.1381 266° West 348 400 36,000  Level Memphis Center
04:25PM 36.1117 -91.2589 271° West 348 400 36,000  Level Memphis Center
04:26PM 36.1169 -91.3769 273° West 348 400 36,000  Level Memphis Center
04:27PM 36.1200 -91.4928 272° West 348 400 36,000  Level Memphis Center
04:28PM 36.1272 -91.6111 274° West 348 400 36,000  Level Memphis Center
04:29PM 36.1261 -91.7317 269° West 348 400 36,000  Level Memphis Center
04:30PM 36.1353 -91.8500 276° West 348 400 36,000  Level Memphis Center
04:31PM 36.1294 -91.9683 267° West 348 400 36,000  Level Memphis Center
04:32PM 36.1428 -92.0661 280° West 348 400 36,000  Level Memphis Center
04:33PM 36.1450 -92.2075 271° West 348 400 36,000  Level Memphis Center
04:34PM 36.1514 -92.3258 274° West 348 400 36,000  Level Memphis Center
04:35PM 36.1517 -92.4442 270° West 348 400 36,000  Level Memphis Center
04:36PM 36.1558 -92.5625 273° West 348 400 36,000  Level Memphis Center
04:37PM 36.1578 -92.6808 271° West 348 400 36,000  Level Memphis Center
04:38PM 36.1619 -92.7992 273° West 348 400 36,000  Level Memphis Center
04:39PM 36.1639 -92.9072 271° West 348 400 36,000  Level Memphis Center
04:40PM 36.1675 -93.0283 272° West 348 400 36,000  Level Memphis Center
04:41PM 36.1692 -93.1464 271° West 348 400 36,000  Level Memphis Center
04:42PM 36.1706 -93.2647 271° West 353 406 36,000  Level Memphis Center
04:43PM 36.1742 -93.3858 272° West 347 399 36,000  Level Memphis Center
04:44PM 36.1772 -93.5094 272° West 347 399 36,000  Level Memphis Center
04:45PM 36.1806 -93.6278 272° West 347 399 36,000  Level Memphis Center
04:46PM 36.1789 -93.7614 269° West 347 399 36,000  Level Memphis Center
04:47PM 36.1797 -93.8847 271° West 347 399 36,000  Level Memphis Center
04:48PM 36.1806 -94.0006 271° West 347 399 36,000  Level Memphis Center
04:49PM 36.1831 -94.1217 272° West 347 399 36,000  Level Memphis Center
04:50PM 36.1858 -94.2400 272° West 347 399 36,000  Level Memphis Center
04:51PM 36.1861 -94.3608 270° West 347 399 36,000  Level Memphis Center
04:52PM 36.1864 -94.4767 270° West 347 399 36,000  Level Memphis Center
04:55PM 36.1922 -94.7392 272° West 345 397 36,000  Level Kansas City Center
04:56PM 36.1931 -94.8597 271° West 346 398 36,000  Level Kansas City Center
04:57PM 36.1939 -95.0028 270° West 346 398 36,000  Level Kansas City Center
04:58PM 36.1950 -95.1128 271° West 347 399 36,000  Level Kansas City Center
04:59PM 36.1950 -95.2300 270° West 343 395 36,000  Level Kansas City Center
05:00PM 36.1956 -95.3494 270° West 346 398 36,000  Level Kansas City Center
05:01PM 36.1964 -95.4917 270° West 346 398 36,000  Level Kansas City Center
05:02PM 36.1958 -95.6100 270° West 345 397 36,000  Level Kansas City Center
05:03PM 36.1961 -95.7283 270° West 345 397 36,000  Level Kansas City Center
05:04PM 36.1867 -95.8442 264° West 350 403 36,000  Level Kansas City Center
05:05PM 36.1669 -95.9606 258° West 347 399 36,000 840 Level Kansas City Center
05:06PM 36.1439 -96.1000 258° West 345 397 37,800 960 Climbing Kansas City Center
05:07PM 36.1244 -96.2125 258° West 339 390 38,000 60 Climbing Kansas City Center
05:08PM 36.1047 -96.3267 258° West 338 389 38,000  Level Kansas City Center
05:09PM 36.0856 -96.4403 258° West 338 389 38,000  Level Kansas City Center
05:10PM 36.0667 -96.5558 259° West 340 391 38,000  Level Kansas City Center
05:11PM 36.0469 -96.6658 258° West 336 387 38,000  Level Kansas City Center
05:12PM 36.0239 -96.8011 258° West 336 387 38,000  Level Kansas City Center
05:13PM 36.0053 -96.9114 258° West 332 382 38,000  Level Kansas City Center
05:14PM 35.9847 -97.0206 257° West 328 377 38,000  Level Kansas City Center
05:15PM 35.9653 -97.1286 257° West 326 375 38,000  Level Kansas City Center
05:16PM 35.9461 -97.2367 258° West 325 374 38,000  Level Kansas City Center
05:17PM 35.9239 -97.3681 258° West 327 376 38,000  Level Kansas City Center
05:18PM 35.9039 -97.4775 257° West 330 380 38,000  Level Kansas City Center
05:19PM 35.8828 -97.5875 257° West 331 381 38,000  Level Kansas City Center
05:21PM 35.8625 -97.6978 257° West 332 382 38,000  Level Kansas City Center
05:21PM 35.8436 -97.7950 257° West 336 387 38,000  Level Fort Worth Center
05:22PM 35.8222 -97.9000 256° West 336 387 38,000  Level Fort Worth Center
05:23PM 35.8050 -98.0125 259° West 336 387 38,000  Level Fort Worth Center
05:24PM 35.7900 -98.1250 261° West 336 387 38,000  Level Fort Worth Center
05:25PM 35.7747 -98.2347 260° West 336 387 38,000  Level Fort Worth Center
05:26PM 35.7614 -98.3447 262° West 336 387 38,000  Level Fort Worth Center
05:27PM 35.7458 -98.4569 260° West 336 387 38,000  Level Fort Worth Center
05:28PM 35.7325 -98.5667 262° West 336 387 38,000  Level Fort Worth Center
05:29PM 35.7167 -98.6817 260° West 336 387 38,000  Level Fort Worth Center
05:30PM 35.7031 -98.7914 261° West 330 380 38,000  Level Fort Worth Center
05:31PM 35.6892 -98.9008 261° West 330 380 38,000  Level Fort Worth Center
05:32PM 35.6711 -99.0131 259° West 330 380 38,000  Level Fort Worth Center
05:33PM 35.6572 -99.1250 261° West 330 380 38,000  Level Fort Worth Center
05:34PM 35.6433 -99.2244 260° West 330 380 38,000  Level Fort Worth Center
05:35PM 35.6311 -99.3364 262° West 330 380 38,000  Level Fort Worth Center
05:36PM 35.6419 -99.4442 277° West 330 380 38,000  Level Fort Worth Center
05:37PM 35.6506 -99.5567 275° West 330 380 38,000  Level Fort Worth Center
05:38PM 35.6611 -99.6667 277° West 330 380 38,000  Level Fort Worth Center
05:39PM 35.6714 -99.7517 278° West 326 375 38,000  Level Albuquerque Center
05:40PM 35.6839 -99.8858 277° West 327 376 38,000  Level Albuquerque Center
05:41PM 35.6931 -99.9961 276° West 325 374 38,000  Level Albuquerque Center
05:42PM 35.7036 -100.1067 277° West 324 373 38,000  Level Albuquerque Center
05:43PM 35.7136 -100.2186 276° West 327 376 38,000  Level Albuquerque Center
05:44PM 35.7228 -100.3286 276° West 325 374 38,000  Level Albuquerque Center
05:45PM 35.7314 -100.4386 276° West 323 372 38,000  Level Albuquerque Center
05:46PM 35.7406 -100.5483 276° West 322 371 38,000  Level Albuquerque Center
05:47PM 35.7514 -100.6806 276° West 323 372 38,000  Level Albuquerque Center
05:48PM 35.7608 -100.7908 276° West 324 373 38,000  Level Albuquerque Center
05:49PM 35.7692 -100.9022 275° West 326 375 38,000  Level Albuquerque Center
05:50PM 35.7794 -101.0231 276° West 328 377 38,000  Level Albuquerque Center
05:51PM 35.7878 -101.1344 275° West 329 379 38,000  Level Albuquerque Center
05:53PM 35.7969 -101.2458 276° West 328 377 38,000  Level Albuquerque Center
05:54PM 35.8056 -101.3572 275° West 329 379 38,000  Level Albuquerque Center
05:55PM 35.8056 -101.4678 270° West 326 375 38,000  Level Albuquerque Center
05:56PM 35.8019 -101.6000 268° West 324 373 38,000  Level Albuquerque Center
05:57PM 35.7981 -101.7103 268° West 324 373 38,000  Level Albuquerque Center
05:58PM 35.7956 -101.8214 268° West 325 374 38,000  Level Albuquerque Center
05:59PM 35.7919 -101.9333 268° West 327 376 38,000  Level Albuquerque Center
06:00PM 35.7886 -102.0592 268° West 328 377 38,000  Level Albuquerque Center
06:01PM 35.7847 -102.1800 268° West 331 381 38,000  Level Albuquerque Center
06:02PM 35.7811 -102.2928 268° West 332 382 38,000  Level Albuquerque Center
06:03PM 35.7772 -102.4044 268° West 331 381 38,000  Level Albuquerque Center
06:04PM 35.7736 -102.5186 268° West 333 383 38,000  Level Albuquerque Center
06:05PM 35.7703 -102.6308 268° West 332 382 38,000  Level Albuquerque Center
06:06PM 35.7650 -102.7667 267° West 333 383 38,000  Level Albuquerque Center
06:07PM 35.7606 -102.8803 267° West 333 383 38,000  Level Albuquerque Center
06:08PM 35.7575 -102.9917 268° West 332 382 38,000  Level Albuquerque Center
06:09PM 35.7531 -103.1050 267° West 331 381 38,000  Level Albuquerque Center
06:10PM 35.7475 -103.2169 267° West 327 376 38,000  Level Albuquerque Center
06:11PM 35.7436 -103.3289 268° West 326 375 38,000  Level Albuquerque Center
06:12PM 35.7383 -103.4622 267° West 330 380 38,000  Level Albuquerque Center
06:13PM 35.7336 -103.5767 267° West 332 382 38,000  Level Albuquerque Center
06:14PM 35.7286 -103.6914 267° West 334 384 38,000  Level Albuquerque Center
06:15PM 35.7236 -103.8056 267° West 333 383 38,000  Level Albuquerque Center
06:16PM 35.7181 -103.9211 267° West 336 387 38,000  Level Albuquerque Center
06:17PM 35.7133 -104.0344 267° West 333 383 38,000  Level Albuquerque Center
06:18PM 35.7072 -104.1667 267° West 331 381 38,000  Level Albuquerque Center
06:19PM 35.7014 -104.2800 266° West 331 381 38,000  Level Albuquerque Center
06:20PM 35.6964 -104.3969 267° West 338 389 38,000  Level Albuquerque Center
06:21PM 35.6897 -104.5153 266° West 343 395 38,000  Level Albuquerque Center
06:22PM 35.6844 -104.6328 267° West 344 396 38,000  Level Albuquerque Center
06:24PM 35.6778 -104.7503 266° West 344 396 38,000  Level Albuquerque Center
06:25PM 35.6714 -104.8664 266° West 340 391 38,000  Level Albuquerque Center
06:26PM 35.6639 -105.0036 266° West 342 394 38,000  Level Albuquerque Center
06:27PM 35.6575 -105.1222 266° West 345 397 38,000  Level Albuquerque Center
06:28PM 35.6519 -105.2381 267° West 340 391 38,000  Level Albuquerque Center
06:29PM 35.6497 -105.3522 269° West 334 384 38,000  Level Albuquerque Center
06:30PM 35.6456 -105.4703 268° West 340 391 38,000  Level Albuquerque Center
06:31PM 35.6406 -105.5972 267° West 346 398 38,000  Level Albuquerque Center
06:32PM 35.6356 -105.7150 267° West 347 399 38,000  Level Albuquerque Center
06:33PM 35.6308 -105.8469 268° West 344 396 38,000  Level Albuquerque Center
06:34PM 35.6275 -105.9469 268° West 340 391 38,000  Level Albuquerque Center
06:35PM 35.6231 -106.0622 267° West 339 390 38,000  Level Albuquerque Center
06:36PM 35.6167 -106.1981 267° West 335 386 38,000  Level Albuquerque Center
06:37PM 35.6142 -106.3161 269° West 342 394 38,000  Level Albuquerque Center
06:38PM 35.6092 -106.4325 267° West 343 395 38,000  Level Albuquerque Center
06:39PM 35.6036 -106.5486 267° West 343 395 38,000  Level Albuquerque Center
06:40PM 35.5978 -106.6661 267° West 345 397 38,000  Level Albuquerque Center
06:41PM 35.5933 -106.7831 267° West 345 397 38,000  Level Albuquerque Center
06:42PM 35.5853 -106.9250 266° West 347 399 38,000  Level Albuquerque Center
06:43PM 35.5808 -107.0411 267° West 344 396 38,000  Level Albuquerque Center
06:44PM 35.5744 -107.1592 266° West 347 399 38,000  Level Albuquerque Center
06:45PM 35.5675 -107.2939 266° West 346 398 38,000  Level Albuquerque Center
06:46PM 35.5614 -107.4067 266° West 345 397 38,000  Level Albuquerque Center
06:47PM 35.5556 -107.5181 266° West 343 395 38,000  Level Albuquerque Center
06:48PM 35.5500 -107.6464 267° West 339 390 38,000  Level Albuquerque Center
06:49PM 35.5431 -107.7558 266° West 337 388 38,000  Level Albuquerque Center
06:50PM 35.5364 -107.8858 266° West 339 390 38,000  Level Albuquerque Center
06:51PM 35.5303 -107.9978 266° West 341 392 38,000  Level Albuquerque Center
06:52PM 35.5228 -108.1292 266° West 344 396 38,000  Level Albuquerque Center
06:53PM 35.5161 -108.2436 266° West 347 399 38,000  Level Albuquerque Center
06:54PM 35.5089 -108.3569 266° West 347 399 38,000  Level Albuquerque Center
06:55PM 35.5008 -108.4900 266° West 349 402 38,000  Level Albuquerque Center
06:57PM 35.4942 -108.6039 266° West 349 402 38,000  Level Albuquerque Center
06:58PM 35.4858 -108.7378 266° West 349 402 38,000  Level Albuquerque Center
06:59PM 35.4778 -108.8503 265° West 348 400 38,000  Level Albuquerque Center
07:00PM 35.4567 -108.9764 258° West 341 392 38,000  Level Albuquerque Center
07:01PM 35.4347 -109.0875 256° West 344 396 38,000  Level Albuquerque Center
07:02PM 35.4131 -109.1975 256° West 345 397 38,000  Level Albuquerque Center
07:03PM 35.3867 -109.3250 256° West 346 398 38,000  Level Albuquerque Center
07:04PM 35.3650 -109.4331 256° West 342 394 38,000  Level Albuquerque Center
07:05PM 35.3386 -109.5561 255° West 336 387 38,000  Level Albuquerque Center
07:06PM 35.3161 -109.6639 256° West 337 388 38,000  Level Albuquerque Center
07:07PM 35.2939 -109.7747 256° West 345 397 38,000  Level Albuquerque Center
07:08PM 35.2672 -109.9033 256° West 349 402 38,000  Level Albuquerque Center
07:09PM 35.2447 -110.0131 256° West 347 399 38,000  Level Albuquerque Center
07:10PM 35.2167 -110.1414 255° West 350 403 38,000  Level Albuquerque Center
07:11PM 35.1933 -110.2508 255° West 348 400 38,000  Level Albuquerque Center
07:12PM 35.1650 -110.3797 255° West 351 404 38,000  Level Albuquerque Center
07:13PM 35.1403 -110.4908 255° West 352 405 38,000  Level Albuquerque Center
07:14PM 35.1158 -110.6036 255° West 357 411 38,000  Level Albuquerque Center
07:15PM 35.0872 -110.7356 255° West 360 414 38,000  Level Albuquerque Center
07:16PM 35.0631 -110.8486 255° West 360 414 38,000 -300 Level Albuquerque Center
07:17PM 35.0356 -110.9750 255° West 365 420 37,500 -780 Descending Albuquerque Center
07:18PM 35.0119 -111.1000 257° West 378 435 36,500 -780 Descending Albuquerque Center
07:19PM 34.9844 -111.2258 255° West 387 445 36,000 -300 Descending Albuquerque Center
07:20PM 34.9567 -111.3503 255° West 383 441 36,000  Level Albuquerque Center
07:21PM 34.9236 -111.5008 255° West 385 443 36,000  Level Albuquerque Center
07:22PM 34.8958 -111.6258 255° West 385 443 36,000  Level Albuquerque Center
07:23PM 34.8686 -111.7489 255° West 385 443 36,000  Level Albuquerque Center
07:24PM 34.8403 -111.8750 255° West 386 444 36,000  Level Albuquerque Center
07:25PM 34.8111 -112.0011 254° West 388 447 36,000  Level Albuquerque Center
07:26PM 34.7828 -112.1272 255° West 387 445 36,000  Level Albuquerque Center
07:27PM 34.7494 -112.2789 255° West 387 445 36,000  Level Albuquerque Center
07:28PM 34.7189 -112.4083 254° West 391 450 36,000  Level Albuquerque Center
07:29PM 34.6956 -112.5406 258° West 397 457 36,000  Level Albuquerque Center
07:30PM 34.6794 -112.6736 262° West 400 460 36,000  Level Albuquerque Center
07:31PM 34.6642 -112.8075 262° West 400 460 36,000  Level Albuquerque Center
07:32PM 34.6481 -112.9414 262° West 401 461 36,000  Level Albuquerque Center
07:34PM 34.6319 -113.0753 262° West 402 463 36,000  Level Albuquerque Center
07:35PM 34.6156 -113.2089 262° West 401 461 36,000  Level Albuquerque Center
07:36PM 34.5956 -113.3711 262° West 404 465 36,000  Level Albuquerque Center
07:37PM 34.5797 -113.5067 262° West 405 466 36,000  Level Albuquerque Center
07:38PM 34.5628 -113.6417 261° West 406 467 36,000  Level Albuquerque Center
07:39PM 34.5375 -113.7706 257° West 398 458 36,000  Level Albuquerque Center
07:40PM 34.5072 -113.9064 255° West 404 465 36,000  Level Albuquerque Center
07:41PM 34.4806 -114.0381 256° West 402 463 36,000  Level Albuquerque Center
07:42PM 34.4536 -114.1694 256° West 403 464 36,000  Level Albuquerque Center
07:42PM 34.4425 -114.2258 257° West 401 461 36,000  Level Los Angeles Center
07:43PM 34.4100 -114.3850 256° West 405 466 36,000  Level Los Angeles Center
07:44PM 34.3825 -114.5172 256° West 406 467 36,000  Level Los Angeles Center
07:45PM 34.3542 -114.6497 256° West 409 471 36,000  Level Los Angeles Center
07:46PM 34.3258 -114.7856 256° West 414 476 36,000  Level Los Angeles Center
07:47PM 34.2969 -114.9236 256° West 423 487 36,000  Level Los Angeles Center
07:48PM 34.2672 -115.0614 255° West 424 488 36,000  Level Los Angeles Center
07:49PM 34.2317 -115.2283 256° West 428 493 36,000  Level Los Angeles Center
07:50PM 34.2025 -115.3667 256° West 428 493 36,000  Level Los Angeles Center
07:52PM 34.1714 -115.5047 255° West 428 493 36,000  Level Los Angeles Center
07:53PM 34.1406 -115.6431 255° West 428 493 36,000  Level Los Angeles Center
07:54PM 34.1097 -115.7844 255° West 434 499 36,000  Level Los Angeles Center
07:55PM 34.0856 -115.9539 260° West 430 495 36,000 -1,020 Level Los Angeles Center
07:56PM 34.0644 -116.0958 260° West 431 496 34,000 -2,280 Descending Los Angeles Center
07:57PM 34.0428 -116.2372 260° West 432 497 31,300 -2,460 Descending Los Angeles Center
07:58PM 34.0222 -116.3722 260° West 416 479 29,000 -2,160 Descending Los Angeles Center
07:59PM 34.0033 -116.5036 260° West 403 464 26,900 -2,160 Descending Los Angeles Center
08:00PM 33.9914 -116.6544 265° West 382 440 24,500 -2,100 Descending Los Angeles Center
08:01PM 33.9817 -116.7733 264° West 364 419 22,500 -1,920 Descending Los Angeles Center
08:02PM 33.9722 -116.8908 264° West 357 411 20,600 -1,980 Descending Los Angeles Center
08:02PM 33.9667 -116.9667 265° West 350 403 19,400 -2,160 Descending Southern California TRACON
08:03PM 33.9500 -117.0833 260° West 365 420 17,300 -1,440 Descending Southern California TRACON
08:04PM 33.9500 -117.2167 270° West 363 418 16,600 -1,260 Descending Southern California TRACON
08:05PM 33.9333 -117.3333 260° West 349 402 14,800 -1,920 Descending Southern California TRACON
08:06PM 33.9500 -117.4333 281° West 348 400 13,000 -2,040 Descending Southern California TRACON
08:07PM 33.9833 -117.5333 292° West 342 394 11,000 -1,380 Descending Southern California TRACON
08:08PM 34.0167 -117.6500 289° West 338 389 10,200 -840 Descending Southern California TRACON
08:09PM 34.0000 -117.7500 259° West 274 315 9,300 -1,200 Descending Southern California TRACON
08:10PM 33.9833 -117.8333 256° West 279 321 7,900 -1,320 Descending Southern California TRACON
08:11PM 33.9833 -117.9333 270° West 283 326 6,700 -1,200 Descending Southern California TRACON
08:12PM 33.9667 -118.0167 256° West 280 322 5,700 -1,080 Descending Southern California TRACON
08:13PM 33.9667 -118.1000 270° West 254 292 4,700 -1,200 Descending Southern California TRACON
08:14PM 33.9500 -118.1833 256° West 225 259 3,400 -1,200 Descending Southern California TRACON
08:15PM 33.9500 -118.2500 270° West 195 224 2,400 -960 Descending Southern California TRACON
08:16PM 33.9500 -118.3000 270° West 174 200 1,500 -960 Descending Southern California TRACON
08:17PM 33.9408 -118.3581 259° West 176 203 500 -600 Descending Los Angeles Center
08:18PM 33.9381 -118.3897 264° West 167 192 300 -240 Descending Los Angeles Center
08:20PM 33.9333 -118.4000 270° West  Level FlightAware Approximate